sensor_id;sensor_type;location;lat;lon;timestamp;pressure;altitude;pressure_sealevel;temperature;humidity
76311;BME280;65120;59.304;18.294;2023-08-17T00:01:36;101992.16;;;18.42;68.48
76311;BME280;65120;59.304;18.294;2023-08-17T00:04:03;101999.28;;;18.40;68.36
76311;BME280;65120;59.304;18.294;2023-08-17T00:06:30;101994.19;;;18.34;68.49
76311;BME280;65120;59.304;18.294;2023-08-17T00:08:57;101996.75;;;18.35;68.32
76311;BME280;65120;59.304;18.294;2023-08-17T00:11:24;102006.53;;;18.33;68.34
76311;BME280;65120;59.304;18.294;2023-08-17T00:13:51;102000.44;;;18.31;68.46
76311;BME280;65120;59.304;18.294;2023-08-17T00:16:18;101990.06;;;18.24;68.20
76311;BME280;65120;59.304;18.294;2023-08-17T00:18:47;101996.19;;;18.26;68.38
76311;BME280;65120;59.304;18.294;2023-08-17T00:21:14;102001.59;;;18.23;68.41
76311;BME280;65120;59.304;18.294;2023-08-17T00:23:40;102009.53;;;18.21;68.40
76311;BME280;65120;59.304;18.294;2023-08-17T00:26:08;102011.44;;;18.17;68.21
76311;BME280;65120;59.304;18.294;2023-08-17T00:28:35;102009.75;;;18.15;68.17
76311;BME280;65120;59.304;18.294;2023-08-17T00:31:02;102015.97;;;18.12;68.38
76311;BME280;65120;59.304;18.294;2023-08-17T00:33:29;102001.13;;;18.08;68.36
76311;BME280;65120;59.304;18.294;2023-08-17T00:35:57;102003.88;;;18.05;68.27
76311;BME280;65120;59.304;18.294;2023-08-17T00:38:25;102005.69;;;18.03;68.54
76311;BME280;65120;59.304;18.294;2023-08-17T00:40:52;102002.41;;;17.95;68.42
76311;BME280;65120;59.304;18.294;2023-08-17T00:43:19;102011.16;;;17.97;68.44
76311;BME280;65120;59.304;18.294;2023-08-17T00:45:46;102017.41;;;17.94;68.66
76311;BME280;65120;59.304;18.294;2023-08-17T00:48:14;102007.97;;;17.86;68.45
76311;BME280;65120;59.304;18.294;2023-08-17T00:50:41;102022.03;;;17.88;68.76
76311;BME280;65120;59.304;18.294;2023-08-17T00:53:10;102024.75;;;17.85;68.48
76311;BME280;65120;59.304;18.294;2023-08-17T00:55:39;102023.06;;;17.82;68.76
76311;BME280;65120;59.304;18.294;2023-08-17T00:58:06;102023.16;;;17.79;68.44
76311;BME280;65120;59.304;18.294;2023-08-17T01:00:32;102021.44;;;17.76;68.80
76311;BME280;65120;59.304;18.294;2023-08-17T01:03:00;102019.72;;;17.74;68.73
76311;BME280;65120;59.304;18.294;2023-08-17T01:05:27;101998.16;;;17.58;68.71
76311;BME280;65120;59.304;18.294;2023-08-17T01:07:54;102020.78;;;17.68;68.81
76311;BME280;65120;59.304;18.294;2023-08-17T01:10:22;102026.16;;;17.65;68.81
76311;BME280;65120;59.304;18.294;2023-08-17T01:12:53;102030.66;;;17.62;68.92
76311;BME280;65120;59.304;18.294;2023-08-17T01:15:27;102027.22;;;17.58;68.93
76311;BME280;65120;59.304;18.294;2023-08-17T01:18:02;102031.69;;;17.56;68.99
76311;BME280;65120;59.304;18.294;2023-08-17T01:20:31;102030.88;;;17.54;69.08
76311;BME280;65120;59.304;18.294;2023-08-17T01:23:04;102031.84;;;17.50;69.10
76311;BME280;65120;59.304;18.294;2023-08-17T01:25:31;102039.84;;;17.47;69.25
76311;BME280;65120;59.304;18.294;2023-08-17T01:28:02;102039.94;;;17.44;69.04
76311;BME280;65120;59.304;18.294;2023-08-17T01:30:30;102038.25;;;17.41;69.29
76311;BME280;65120;59.304;18.294;2023-08-17T01:33:05;102041.81;;;17.39;69.16
76311;BME280;65120;59.304;18.294;2023-08-17T01:35:38;102043.69;;;17.35;69.50
76311;BME280;65120;59.304;18.294;2023-08-17T01:38:12;102046.38;;;17.34;69.33
76311;BME280;65120;59.304;18.294;2023-08-17T01:40:41;102046.47;;;17.30;69.52
76311;BME280;65120;59.304;18.294;2023-08-17T01:43:10;102048.28;;;17.28;69.40
76311;BME280;65120;59.304;18.294;2023-08-17T01:45:36;102046.53;;;17.27;69.76
76311;BME280;65120;59.304;18.294;2023-08-17T01:48:03;102053.66;;;17.25;69.86
76311;BME280;65120;59.304;18.294;2023-08-17T01:50:30;102051.94;;;17.23;69.90
76311;BME280;65120;59.304;18.294;2023-08-17T01:52:57;102052.88;;;17.20;70.03
76311;BME280;65120;59.304;18.294;2023-08-17T01:55:26;102052.91;;;17.19;70.06
76311;BME280;65120;59.304;18.294;2023-08-17T01:57:53;102062.63;;;17.18;70.14
76311;BME280;65120;59.304;18.294;2023-08-17T02:00:20;102060.09;;;17.14;70.54
76311;BME280;65120;59.304;18.294;2023-08-17T02:02:47;102074.13;;;17.16;70.29
76311;BME280;65120;59.304;18.294;2023-08-17T02:05:14;102066.25;;;17.14;70.60
76311;BME280;65120;59.304;18.294;2023-08-17T02:07:40;102066.28;;;17.13;70.53
76311;BME280;65120;59.304;18.294;2023-08-17T02:10:08;102065.41;;;17.12;70.99
76311;BME280;65120;59.304;18.294;2023-08-17T02:12:36;102074.25;;;17.11;70.89
76311;BME280;65120;59.304;18.294;2023-08-17T02:15:04;102073.38;;;17.11;71.10
76311;BME280;65120;59.304;18.294;2023-08-17T02:17:31;102071.63;;;17.09;70.94
76311;BME280;65120;59.304;18.294;2023-08-17T02:19:57;102073.38;;;17.11;70.92
76311;BME280;65120;59.304;18.294;2023-08-17T02:22:24;102084.84;;;17.09;71.04
76311;BME280;65120;59.304;18.294;2023-08-17T02:24:51;102084.84;;;17.09;71.32
76311;BME280;65120;59.304;18.294;2023-08-17T02:27:18;102082.25;;;17.08;71.25
76311;BME280;65120;59.304;18.294;2023-08-17T02:29:46;102064.03;;;16.97;71.48
76311;BME280;65120;59.304;18.294;2023-08-17T02:32:13;102094.56;;;17.07;71.34
76311;BME280;65120;59.304;18.294;2023-08-17T02:34:40;102097.19;;;17.07;71.38
76311;BME280;65120;59.304;18.294;2023-08-17T02:37:07;102096.38;;;17.05;71.42
76311;BME280;65120;59.304;18.294;2023-08-17T02:39:34;102099.91;;;17.06;71.33
76311;BME280;65120;59.304;18.294;2023-08-17T02:42:01;102096.41;;;17.04;71.51
76311;BME280;65120;59.304;18.294;2023-08-17T02:44:28;102109.66;;;17.02;71.66
76311;BME280;65120;59.304;18.294;2023-08-17T02:46:56;102112.25;;;17.04;71.92
76311;BME280;65120;59.304;18.294;2023-08-17T02:49:23;102105.25;;;17.03;71.74
76311;BME280;65120;59.304;18.294;2023-08-17T02:51:50;102114.09;;;17.00;71.98
76311;BME280;65120;59.304;18.294;2023-08-17T02:54:17;102110.59;;;17.00;72.12
76311;BME280;65120;59.304;18.294;2023-08-17T02:56:43;102115.88;;;17.00;72.10
76311;BME280;65120;59.304;18.294;2023-08-17T02:59:10;102122.03;;;17.00;72.29
76311;BME280;65120;59.304;18.294;2023-08-17T03:01:38;102122.88;;;17.01;72.39
76311;BME280;65120;59.304;18.294;2023-08-17T03:04:06;102117.59;;;17.01;72.42
76311;BME280;65120;59.304;18.294;2023-08-17T03:06:33;102122.03;;;16.99;72.61
76311;BME280;65120;59.304;18.294;2023-08-17T03:09:00;102124.66;;;17.00;72.46
76311;BME280;65120;59.304;18.294;2023-08-17T03:11:27;102122.03;;;16.99;72.78
76311;BME280;65120;59.304;18.294;2023-08-17T03:13:54;102126.44;;;17.00;72.74
76311;BME280;65120;59.304;18.294;2023-08-17T03:16:25;102131.72;;;17.00;72.55
76311;BME280;65120;59.304;18.294;2023-08-17T03:18:52;102129.09;;;17.00;72.55
76311;BME280;65120;59.304;18.294;2023-08-17T03:21:20;102132.59;;;17.00;72.66
76311;BME280;65120;59.304;18.294;2023-08-17T03:23:47;102137.00;;;17.00;72.69
76311;BME280;65120;59.304;18.294;2023-08-17T03:26:14;102144.00;;;17.01;72.87
76311;BME280;65120;59.304;18.294;2023-08-17T03:28:41;102150.19;;;17.00;72.71
76311;BME280;65120;59.304;18.294;2023-08-17T03:31:09;102112.78;;;16.82;72.74
76311;BME280;65120;59.304;18.294;2023-08-17T03:33:36;102155.47;;;17.00;72.92
76311;BME280;65120;59.304;18.294;2023-08-17T03:36:03;102157.25;;;16.99;72.93
76311;BME280;65120;59.304;18.294;2023-08-17T03:38:31;102154.63;;;16.98;72.82
76311;BME280;65120;59.304;18.294;2023-08-17T03:40:58;102161.66;;;16.99;72.91
76311;BME280;65120;59.304;18.294;2023-08-17T03:43:25;102159.91;;;16.98;73.08
76311;BME280;65120;59.304;18.294;2023-08-17T03:45:52;102159.91;;;16.98;73.11
76311;BME280;65120;59.304;18.294;2023-08-17T03:48:19;102166.97;;;16.97;73.07
76311;BME280;65120;59.304;18.294;2023-08-17T03:50:51;102150.66;;;16.80;73.17
76311;BME280;65120;59.304;18.294;2023-08-17T03:53:18;102174.03;;;16.97;73.42
76311;BME280;65120;59.304;18.294;2023-08-17T03:55:47;102176.66;;;16.97;73.59
76311;BME280;65120;59.304;18.294;2023-08-17T03:58:14;102174.03;;;16.97;73.55
76311;BME280;65120;59.304;18.294;2023-08-17T04:00:41;102174.03;;;16.97;73.57
76311;BME280;65120;59.304;18.294;2023-08-17T04:03:08;102171.38;;;16.97;73.70
76311;BME280;65120;59.304;18.294;2023-08-17T04:05:35;102169.63;;;16.96;73.82
76311;BME280;65120;59.304;18.294;2023-08-17T04:08:02;102162.59;;;16.96;73.83
76311;BME280;65120;59.304;18.294;2023-08-17T04:10:29;102169.63;;;16.97;74.00
76311;BME280;65120;59.304;18.294;2023-08-17T04:12:57;102174.91;;;16.97;74.10
76311;BME280;65120;59.304;18.294;2023-08-17T04:15:24;102174.91;;;16.96;73.86
76311;BME280;65120;59.304;18.294;2023-08-17T04:17:51;102184.53;;;16.98;74.01
76311;BME280;65120;59.304;18.294;2023-08-17T04:20:18;102188.94;;;16.99;74.01
76311;BME280;65120;59.304;18.294;2023-08-17T04:22:45;102184.53;;;16.98;74.24
76311;BME280;65120;59.304;18.294;2023-08-17T04:25:12;102182.75;;;16.99;74.25
76311;BME280;65120;59.304;18.294;2023-08-17T04:27:39;102186.25;;;17.01;74.13
76311;BME280;65120;59.304;18.294;2023-08-17T04:30:09;102182.72;;;17.02;74.47
76311;BME280;65120;59.304;18.294;2023-08-17T04:32:36;102196.72;;;17.04;74.47
76311;BME280;65120;59.304;18.294;2023-08-17T04:35:04;102193.22;;;17.05;74.80
76311;BME280;65120;59.304;18.294;2023-08-17T04:37:31;102190.56;;;17.05;74.97
76311;BME280;65120;59.304;18.294;2023-08-17T04:39:58;102199.28;;;17.08;74.97
76311;BME280;65120;59.304;18.294;2023-08-17T04:42:25;102198.38;;;17.09;75.20
76311;BME280;65120;59.304;18.294;2023-08-17T04:44:52;102200.03;;;17.14;75.54
76311;BME280;65120;59.304;18.294;2023-08-17T04:47:20;102194.72;;;17.15;75.56
76311;BME280;65120;59.304;18.294;2023-08-17T04:49:47;102197.25;;;17.20;75.35
76311;BME280;65120;59.304;18.294;2023-08-17T04:52:15;102172.81;;;17.10;75.51
76311;BME280;65120;59.304;18.294;2023-08-17T04:54:41;102199.69;;;17.27;75.82
76311;BME280;65120;59.304;18.294;2023-08-17T04:57:08;102202.22;;;17.34;75.60
76311;BME280;65120;59.304;18.294;2023-08-17T04:59:36;102196.88;;;17.37;75.54
76311;BME280;65120;59.304;18.294;2023-08-17T05:02:03;102199.38;;;17.41;75.56
76311;BME280;65120;59.304;18.294;2023-08-17T05:04:31;102185.22;;;17.44;75.48
76311;BME280;65120;59.304;18.294;2023-08-17T05:06:58;102196.44;;;17.53;75.30
76311;BME280;65120;59.304;18.294;2023-08-17T05:09:26;102195.53;;;17.54;75.31
76311;BME280;65120;59.304;18.294;2023-08-17T05:11:53;102212.75;;;17.71;75.08
76311;BME280;65120;59.304;18.294;2023-08-17T05:14:20;102208.25;;;17.73;74.81
76311;BME280;65120;59.304;18.294;2023-08-17T05:16:47;102214.25;;;17.83;74.62
76311;BME280;65120;59.304;18.294;2023-08-17T05:19:14;102214.94;;;17.89;74.48
76311;BME280;65120;59.304;18.294;2023-08-17T05:21:42;102215.69;;;17.94;74.18
76311;BME280;65120;59.304;18.294;2023-08-17T05:24:09;102188.72;;;17.82;74.07
76311;BME280;65120;59.304;18.294;2023-08-17T05:26:36;102215.41;;;18.05;73.86
76311;BME280;65120;59.304;18.294;2023-08-17T05:29:03;102191.06;;;17.92;73.37
76311;BME280;65120;59.304;18.294;2023-08-17T05:31:30;102223.94;;;18.15;73.57
76311;BME280;65120;59.304;18.294;2023-08-17T05:33:57;102213.50;;;18.10;73.03
76311;BME280;65120;59.304;18.294;2023-08-17T05:36:25;102235.19;;;18.23;73.00
76311;BME280;65120;59.304;18.294;2023-08-17T05:38:53;102235.97;;;18.27;72.80
76311;BME280;65120;59.304;18.294;2023-08-17T05:41:20;102239.44;;;18.29;72.78
76311;BME280;65120;59.304;18.294;2023-08-17T05:43:47;102231.72;;;18.21;72.77
76311;BME280;65120;59.304;18.294;2023-08-17T05:46:15;102251.63;;;18.34;72.50
76311;BME280;65120;59.304;18.294;2023-08-17T05:48:42;102248.97;;;18.36;72.45
76311;BME280;65120;59.304;18.294;2023-08-17T05:51:08;102257.72;;;18.38;72.31
76311;BME280;65120;59.304;18.294;2023-08-17T05:53:35;102253.44;;;18.34;72.13
76311;BME280;65120;59.304;18.294;2023-08-17T05:56:04;102263.75;;;18.43;72.11
76311;BME280;65120;59.304;18.294;2023-08-17T05:58:31;102271.59;;;18.46;72.11
76311;BME280;65120;59.304;18.294;2023-08-17T06:01:04;102260.19;;;18.44;72.10
76311;BME280;65120;59.304;18.294;2023-08-17T06:03:31;102268.78;;;18.52;71.92
76311;BME280;65120;59.304;18.294;2023-08-17T06:05:58;102238.31;;;18.37;72.00
76311;BME280;65120;59.304;18.294;2023-08-17T06:08:25;102274.81;;;18.57;71.78
76311;BME280;65120;59.304;18.294;2023-08-17T06:10:52;102273.88;;;18.60;71.70
76311;BME280;65120;59.304;18.294;2023-08-17T06:13:20;102280.84;;;18.62;71.52
76311;BME280;65120;59.304;18.294;2023-08-17T06:15:48;102286.09;;;18.64;70.72
76311;BME280;65120;59.304;18.294;2023-08-17T06:18:15;102295.69;;;18.68;70.72
76311;BME280;65120;59.304;18.294;2023-08-17T06:20:42;102289.53;;;18.68;70.95
76311;BME280;65120;59.304;18.294;2023-08-17T06:23:11;102279.84;;;18.66;71.22
76311;BME280;65120;59.304;18.294;2023-08-17T06:25:38;102296.41;;;18.75;71.25
76311;BME280;65120;59.304;18.294;2023-08-17T06:28:06;102279.81;;;18.68;71.06
76311;BME280;65120;59.304;18.294;2023-08-17T06:30:34;102271.00;;;18.68;71.06
76311;BME280;65120;59.304;18.294;2023-08-17T06:33:01;102261.59;;;18.57;70.91
76311;BME280;65120;59.304;18.294;2023-08-17T06:35:28;102312.84;;;18.86;70.72
76311;BME280;65120;59.304;18.294;2023-08-17T06:37:55;102311.03;;;18.88;69.89
76311;BME280;65120;59.304;18.294;2023-08-17T06:40:23;102269.16;;;18.70;69.97
76311;BME280;65120;59.304;18.294;2023-08-17T06:42:50;102298.56;;;18.92;70.04
76311;BME280;65120;59.304;18.294;2023-08-17T06:45:17;102300.28;;;18.94;70.27
76311;BME280;65120;59.304;18.294;2023-08-17T06:47:46;102304.53;;;19.00;70.19
76311;BME280;65120;59.304;18.294;2023-08-17T06:50:14;102307.06;;;19.03;69.62
76311;BME280;65120;59.304;18.294;2023-08-17T06:52:41;102307.91;;;19.05;69.22
76311;BME280;65120;59.304;18.294;2023-08-17T06:55:08;102300.94;;;19.01;68.55
76311;BME280;65120;59.304;18.294;2023-08-17T06:57:36;102268.69;;;18.88;68.82
76311;BME280;65120;59.304;18.294;2023-08-17T07:00:03;102304.13;;;19.14;68.43
76311;BME280;65120;59.304;18.294;2023-08-17T07:02:32;102312.84;;;19.17;67.84
76311;BME280;65120;59.304;18.294;2023-08-17T07:05:01;102316.25;;;19.21;68.44
76311;BME280;65120;59.304;18.294;2023-08-17T07:07:29;102307.53;;;19.17;68.03
76311;BME280;65120;59.304;18.294;2023-08-17T07:09:57;102318.81;;;19.24;68.07
76311;BME280;65120;59.304;18.294;2023-08-17T07:12:24;102329.34;;;19.27;67.91
76311;BME280;65120;59.304;18.294;2023-08-17T07:14:51;102318.66;;;19.30;67.45
76311;BME280;65120;59.304;18.294;2023-08-17T07:17:18;102302.19;;;19.19;67.24
76311;BME280;65120;59.304;18.294;2023-08-17T07:19:45;102310.81;;;19.25;67.17
76311;BME280;65120;59.304;18.294;2023-08-17T07:22:13;102334.16;;;19.42;67.02
76311;BME280;65120;59.304;18.294;2023-08-17T07:24:41;102333.13;;;19.46;66.98
76311;BME280;65120;59.304;18.294;2023-08-17T07:27:08;102332.28;;;19.46;66.58
76311;BME280;65120;59.304;18.294;2023-08-17T07:29:35;102340.81;;;19.55;66.30
76311;BME280;65120;59.304;18.294;2023-08-17T07:32:02;102336.22;;;19.61;66.41
76311;BME280;65120;59.304;18.294;2023-08-17T07:34:29;102328.34;;;19.59;66.21
76311;BME280;65120;59.304;18.294;2023-08-17T07:36:56;102341.19;;;19.73;65.65
76311;BME280;65120;59.304;18.294;2023-08-17T07:39:25;102333.03;;;19.79;65.91
76311;BME280;65120;59.304;18.294;2023-08-17T07:41:52;102338.13;;;19.85;65.63
76311;BME280;65120;59.304;18.294;2023-08-17T07:44:19;102339.59;;;19.95;65.59
76311;BME280;65120;59.304;18.294;2023-08-17T07:46:46;102345.50;;;20.04;65.11
76311;BME280;65120;59.304;18.294;2023-08-17T07:49:13;102338.13;;;20.12;64.77
76311;BME280;65120;59.304;18.294;2023-08-17T07:51:40;102344.06;;;20.20;65.40
76311;BME280;65120;59.304;18.294;2023-08-17T07:54:07;102342.88;;;20.29;64.50
76311;BME280;65120;59.304;18.294;2023-08-17T07:56:35;102347.88;;;20.38;64.01
76311;BME280;65120;59.304;18.294;2023-08-17T07:59:02;102355.44;;;20.49;63.51
76311;BME280;65120;59.304;18.294;2023-08-17T08:01:29;102351.63;;;20.57;62.88
76311;BME280;65120;59.304;18.294;2023-08-17T08:03:56;102364.38;;;20.73;62.65
76311;BME280;65120;59.304;18.294;2023-08-17T08:06:23;102351.50;;;20.85;62.29
76311;BME280;65120;59.304;18.294;2023-08-17T08:08:50;102352.28;;;20.89;61.62
76311;BME280;65120;59.304;18.294;2023-08-17T08:11:17;102366.91;;;21.01;61.34
76311;BME280;65120;59.304;18.294;2023-08-17T08:13:45;102366.69;;;21.07;61.51
76311;BME280;65120;59.304;18.294;2023-08-17T08:16:12;102373.47;;;21.14;61.16
76311;BME280;65120;59.304;18.294;2023-08-17T08:18:39;102375.91;;;21.20;60.84
76311;BME280;65120;59.304;18.294;2023-08-17T08:21:06;102374.88;;;21.24;60.51
76311;BME280;65120;59.304;18.294;2023-08-17T08:23:33;102378.28;;;21.28;60.09
76311;BME280;65120;59.304;18.294;2023-08-17T08:26:00;102376.47;;;21.28;59.93
76311;BME280;65120;59.304;18.294;2023-08-17T08:28:26;102361.63;;;21.23;59.36
76311;BME280;65120;59.304;18.294;2023-08-17T08:30:55;102381.69;;;21.31;58.70
76311;BME280;65120;59.304;18.294;2023-08-17T08:33:22;102378.16;;;21.31;59.75
76311;BME280;65120;59.304;18.294;2023-08-17T08:35:49;102362.34;;;21.28;60.13
76311;BME280;65120;59.304;18.294;2023-08-17T08:38:17;102384.19;;;21.36;59.44
76311;BME280;65120;59.304;18.294;2023-08-17T08:40:46;102367.59;;;21.29;58.95
76311;BME280;65120;59.304;18.294;2023-08-17T08:43:14;102386.69;;;21.41;59.64
76311;BME280;65120;59.304;18.294;2023-08-17T08:45:41;102396.28;;;21.45;59.44
76311;BME280;65120;59.304;18.294;2023-08-17T08:48:11;102393.50;;;21.48;59.56
76311;BME280;65120;59.304;18.294;2023-08-17T08:50:40;102392.75;;;21.44;59.72
76311;BME280;65120;59.304;18.294;2023-08-17T08:53:11;102390.09;;;21.44;59.51
76311;BME280;65120;59.304;18.294;2023-08-17T08:55:43;102403.09;;;21.52;59.27
76311;BME280;65120;59.304;18.294;2023-08-17T08:58:11;102397.78;;;21.52;59.66
76311;BME280;65120;59.304;18.294;2023-08-17T09:00:40;102398.66;;;21.52;59.08
76311;BME280;65120;59.304;18.294;2023-08-17T09:03:07;102406.56;;;21.54;59.31
76311;BME280;65120;59.304;18.294;2023-08-17T09:05:37;102399.34;;;21.58;59.69
76311;BME280;65120;59.304;18.294;2023-08-17T09:08:08;102398.38;;;21.60;59.01
76311;BME280;65120;59.304;18.294;2023-08-17T09:10:35;102412.53;;;21.61;58.91
76311;BME280;65120;59.304;18.294;2023-08-17T09:13:02;102416.84;;;21.63;59.21
76311;BME280;65120;59.304;18.294;2023-08-17T09:15:29;102417.72;;;21.64;59.09
76311;BME280;65120;59.304;18.294;2023-08-17T09:17:56;102417.63;;;21.65;59.08
76311;BME280;65120;59.304;18.294;2023-08-17T09:20:39;102437.06;;;21.67;58.83
76311;BME280;65120;59.304;18.294;2023-08-17T09:23:10;102423.94;;;21.63;58.73
76311;BME280;65120;59.304;18.294;2023-08-17T09:25:39;102412.75;;;21.54;58.56
76311;BME280;65120;59.304;18.294;2023-08-17T09:28:07;102436.09;;;21.70;59.01
76311;BME280;65120;59.304;18.294;2023-08-17T09:30:49;102436.03;;;21.71;58.98
76311;BME280;65120;59.304;18.294;2023-08-17T09:33:17;102438.69;;;21.71;58.31
76311;BME280;65120;59.304;18.294;2023-08-17T09:35:45;102448.44;;;21.71;58.49
76311;BME280;65120;59.304;18.294;2023-08-17T09:38:12;102449.31;;;21.71;58.45
76311;BME280;65120;59.304;18.294;2023-08-17T09:40:39;102449.44;;;21.68;58.60
76311;BME280;65120;59.304;18.294;2023-08-17T09:43:06;102450.25;;;21.70;58.74
76311;BME280;65120;59.304;18.294;2023-08-17T09:45:35;102447.59;;;21.70;58.69
76311;BME280;65120;59.304;18.294;2023-08-17T09:48:03;102444.13;;;21.68;58.78
76311;BME280;65120;59.304;18.294;2023-08-17T09:50:30;102450.31;;;21.69;58.97
76311;BME280;65120;59.304;18.294;2023-08-17T09:52:59;102447.66;;;21.69;58.68
76311;BME280;65120;59.304;18.294;2023-08-17T09:55:26;102443.25;;;21.68;58.76
76311;BME280;65120;59.304;18.294;2023-08-17T09:57:53;102445.91;;;21.68;58.79
76311;BME280;65120;59.304;18.294;2023-08-17T10:00:21;102445.06;;;21.67;58.82
76311;BME280;65120;59.304;18.294;2023-08-17T10:02:49;102439.91;;;21.63;59.35
76311;BME280;65120;59.304;18.294;2023-08-17T10:05:18;102448.56;;;21.68;58.86
76311;BME280;65120;59.304;18.294;2023-08-17T10:07:47;102451.31;;;21.66;58.45
76311;BME280;65120;59.304;18.294;2023-08-17T10:10:22;102451.31;;;21.66;58.40
76311;BME280;65120;59.304;18.294;2023-08-17T10:12:56;102453.91;;;21.68;58.29
76311;BME280;65120;59.304;18.294;2023-08-17T10:15:30;102459.28;;;21.66;58.62
76311;BME280;65120;59.304;18.294;2023-08-17T10:18:02;102451.56;;;21.60;58.00
76311;BME280;65120;59.304;18.294;2023-08-17T10:20:34;102460.28;;;21.64;58.46
76311;BME280;65120;59.304;18.294;2023-08-17T10:23:07;102445.53;;;21.55;58.63
76311;BME280;65120;59.304;18.294;2023-08-17T10:25:37;102471.66;;;21.67;58.41
76311;BME280;65120;59.304;18.294;2023-08-17T10:28:05;102467.16;;;21.69;57.68
76311;BME280;65120;59.304;18.294;2023-08-17T10:30:32;102464.41;;;21.71;57.51
76311;BME280;65120;59.304;18.294;2023-08-17T10:33:00;102474.06;;;21.73;57.35
76311;BME280;65120;59.304;18.294;2023-08-17T10:35:29;102474.06;;;21.73;57.75
76311;BME280;65120;59.304;18.294;2023-08-17T10:37:57;102468.75;;;21.73;57.29
76311;BME280;65120;59.304;18.294;2023-08-17T10:40:28;102467.78;;;21.76;57.25
76311;BME280;65120;59.304;18.294;2023-08-17T10:42:56;102468.63;;;21.76;57.91
76311;BME280;65120;59.304;18.294;2023-08-17T10:45:27;102465.19;;;21.74;58.12
76311;BME280;65120;59.304;18.294;2023-08-17T10:48:25;102463.38;;;21.75;57.73
76311;BME280;65120;59.304;18.294;2023-08-17T10:51:00;102460.78;;;21.73;57.82
76311;BME280;65120;59.304;18.294;2023-08-17T10:53:27;102460.88;;;21.70;57.99
76311;BME280;65120;59.304;18.294;2023-08-17T10:56:00;102459.34;;;21.65;58.12
76311;BME280;65120;59.304;18.294;2023-08-17T10:58:32;102447.63;;;21.47;58.21
76311;BME280;65120;59.304;18.294;2023-08-17T11:00:59;102470.16;;;21.60;58.22
76311;BME280;65120;59.304;18.294;2023-08-17T11:03:26;102464.03;;;21.58;58.51
76311;BME280;65120;59.304;18.294;2023-08-17T11:05:54;102464.16;;;21.55;58.26
76311;BME280;65120;59.304;18.294;2023-08-17T11:08:23;102470.25;;;21.57;58.45
76311;BME280;65120;59.304;18.294;2023-08-17T11:11:02;102467.59;;;21.57;58.62
76311;BME280;65120;59.304;18.294;2023-08-17T11:13:32;102464.03;;;21.58;58.01
76311;BME280;65120;59.304;18.294;2023-08-17T11:16:00;102463.91;;;21.61;57.84
76311;BME280;65120;59.304;18.294;2023-08-17T11:18:27;102474.44;;;21.64;58.12
76311;BME280;65120;59.304;18.294;2023-08-17T11:20:54;102470.78;;;21.67;58.80
76311;BME280;65120;59.304;18.294;2023-08-17T11:23:23;102477.78;;;21.69;58.05
76311;BME280;65120;59.304;18.294;2023-08-17T11:25:52;102476.81;;;21.72;58.00
76311;BME280;65120;59.304;18.294;2023-08-17T11:28:19;102476.72;;;21.73;58.25
76311;BME280;65120;59.304;18.294;2023-08-17T11:30:56;102474.81;;;21.77;58.13
76311;BME280;65120;59.304;18.294;2023-08-17T11:33:23;102450.53;;;21.63;57.97
76311;BME280;65120;59.304;18.294;2023-08-17T11:35:51;102476.69;;;21.75;58.03
76311;BME280;65120;59.304;18.294;2023-08-17T11:38:18;102482.69;;;21.80;58.29
76311;BME280;65120;59.304;18.294;2023-08-17T11:40:45;102484.34;;;21.83;58.31
76311;BME280;65120;59.304;18.294;2023-08-17T11:43:13;102482.59;;;21.83;58.28
76311;BME280;65120;59.304;18.294;2023-08-17T11:45:40;102482.63;;;21.82;57.44
76311;BME280;65120;59.304;18.294;2023-08-17T11:48:08;102479.97;;;21.82;57.10
76311;BME280;65120;59.304;18.294;2023-08-17T11:50:36;102486.09;;;21.84;57.47
76311;BME280;65120;59.304;18.294;2023-08-17T11:53:04;102482.50;;;21.85;57.01
76311;BME280;65120;59.304;18.294;2023-08-17T11:55:31;102485.25;;;21.83;56.12
76311;BME280;65120;59.304;18.294;2023-08-17T11:57:58;102484.31;;;21.84;55.65
76311;BME280;65120;59.304;18.294;2023-08-17T12:00:25;102484.22;;;21.86;55.44
76311;BME280;65120;59.304;18.294;2023-08-17T12:02:52;102489.53;;;21.86;55.82
76311;BME280;65120;59.304;18.294;2023-08-17T12:05:22;102491.31;;;21.87;56.57
76311;BME280;65120;59.304;18.294;2023-08-17T12:07:50;102480.91;;;21.81;56.40
76311;BME280;65120;59.304;18.294;2023-08-17T12:10:18;102461.00;;;21.67;57.08
76311;BME280;65120;59.304;18.294;2023-08-17T12:12:46;102497.53;;;21.86;57.26
76311;BME280;65120;59.304;18.294;2023-08-17T12:15:13;102487.13;;;21.79;57.81
76311;BME280;65120;59.304;18.294;2023-08-17T12:17:45;102502.81;;;21.87;57.89
76311;BME280;65120;59.304;18.294;2023-08-17T12:20:16;102508.16;;;21.86;57.86
76311;BME280;65120;59.304;18.294;2023-08-17T12:22:45;102493.38;;;21.78;58.14
76311;BME280;65120;59.304;18.294;2023-08-17T12:25:12;102503.75;;;21.86;57.91
76311;BME280;65120;59.304;18.294;2023-08-17T12:27:39;102501.13;;;21.85;57.86
76311;BME280;65120;59.304;18.294;2023-08-17T12:30:23;102496.78;;;21.82;58.28
76311;BME280;65120;59.304;18.294;2023-08-17T12:32:50;102502.97;;;21.83;58.56
76311;BME280;65120;59.304;18.294;2023-08-17T12:35:17;102498.59;;;21.82;58.39
76311;BME280;65120;59.304;18.294;2023-08-17T12:37:48;102502.06;;;21.84;58.25
76311;BME280;65120;59.304;18.294;2023-08-17T12:40:15;102503.78;;;21.85;58.48
76311;BME280;65120;59.304;18.294;2023-08-17T12:42:42;102496.66;;;21.85;57.72
76311;BME280;65120;59.304;18.294;2023-08-17T12:45:09;102501.09;;;21.86;57.06